x

Buoy I01 - Eastern Maine Shelf (44034) Weather Station

10:04pm - Sun 28th May 2017 All times are EDT. -4 hours from GMT.

  • Wind
    4mph, 4mph gusts
  • Sea Temp 44°f
  • 空気 Temp 45°f
  • Sea Pressure 1018mb
  • Buoy I01 - Eastern Maine Shelf
  • Buoy I01 - Eastern Maine Shelf

More Historic Weather Station data

Upgrade to MSW Pro to gain access to the past 30 days of data for over 8000 Wavebouys and Weather Stations around the globe.

Join Pro

Comparision Forecast

View Surf forecast
   
Sun 05/28 10:04pm  -   -  4 4 mph 1018mb 44f 45f
9:04pm 2ft 8s 4 4 mph 1018mb 44f 45f
8:04pm 2ft 8s 4 4 mph 1017.5mb 44f 45f
7:04pm 2.5ft 11s 7 7 mph 1017mb 44f 46f
6:04pm 2ft 11s 7 7 mph 1016.7mb 45f 46f
5:04pm 2.5ft 11s 7 9 mph 1016.9mb 44f 46f
4:04pm 3ft 11s 7 9 mph 1016.7mb 44f 46f
3:04pm 2.5ft 6s 7 7 mph 1016.1mb 44f 47f
2:04pm 2.5ft 8s 7 7 mph 1015.7mb 45f 47f
1:04pm 3ft 8s 7 7 mph 1015.7mb 45f 47f
12:04pm 3ft 8s 7 9 mph 1015.7mb 45f 46f
11:04am 2.5ft 8s 7 7 mph 1015.9mb 45f 47f
10:04am 3.5ft 8s 2 4 mph 1016.4mb 44f 48f
9:04am 3ft 8s 2 2 mph 1016.4mb 44f 48f
8:04am 2.5ft 11s 4 7 mph 1015.7mb 44f 45f
7:04am 2.5ft 8s 4 4 mph 1014.8mb 43f 45f
6:04am 2.5ft 11s 2 2 mph 1014.7mb 43f 46f
5:04am 2.5ft 8s 2 4 mph 1014mb 43f 44f
4:04am 2.5ft 8s 2 2 mph 1013.5mb 44f 44f
3:04am 3ft 8s 4 7 mph 1013.2mb 44f 46f
2:04am 2.5ft 8s 4 7 mph 1013.7mb 44f 45f
1:04am 3.5ft 8s 7 7 mph 1013.9mb 44f 45f
12:04am 3ft 8s 7 7 mph 1013.8mb 44f 44f
Sat 05/27 11:04pm 3.5ft 8s 4 4 mph 1013.6mb 44f 44f
10:04pm 4ft 11s 4 4 mph 1013.5mb 44f 44f
9:04pm 4ft 8s 2 4 mph 1013.2mb 44f 44f
8:04pm 3.5ft 11s 4 4 mph 1013.1mb 44f 45f
7:04pm 3ft 11s 4 7 mph 1012.5mb 44f 47f
6:04pm 4ft 11s 4 7 mph 1011.9mb 44f 46f
5:04pm 3.5ft 11s 4 7 mph 1011.6mb 44f 46f
4:04pm 4.5ft 11s 2 4 mph 1011.1mb 44f 48f
3:04pm 4ft 11s 4 4 mph 1010.8mb 43f 46f
2:04pm 4.5ft 11s 7 7 mph 1010.5mb 44f 46f
1:04pm 3.5ft 8s 7 9 mph 1010.2mb 44f 45f
12:04pm 4.5ft 8s 9 11 mph 1009.7mb 44f 45f
11:04am 5ft 11s 11 13 mph 1009.5mb 44f 45f
10:04am 5ft 8s 13 16 mph 1009.1mb 44f 45f
9:04am 6.5ft 11s 16 20 mph 1008.9mb 44f 46f
8:04am 5ft 11s 13 18 mph 1008.3mb 44f 46f
7:04am 5ft 11s 13 18 mph 1007.9mb 44f 46f
6:04am 5ft 11s 16 20 mph 1006.9mb 44f 46f
5:04am 4ft 11s 9 11 mph 1006.4mb 44f 45f
4:04am 4.5ft 8s 11 13 mph 1005.8mb 44f 46f
3:04am  -   -  11 11 mph 1005mb 44f 46f
2:04am 3ft 6s 7 7 mph 1004.5mb 43f 45f
1:04am 4.5ft 11s 11 13 mph 1003.9mb 43f 46f
12:04am  -   -  11 13 mph 1003.2mb 43f 46f
Fri 05/26 11:04pm 6.5ft 11s 11 13 mph 1002.7mb 43f 46f
10:04pm 7.5ft 11s 13 16 mph 1002.6mb 43f 47f
9:04pm 7ft 8s 11 13 mph 1002mb 44f 47f
8:04pm 5.5ft 8s 9 11 mph 1001.4mb 44f 46f
7:04pm 5.5ft 11s 9 9 mph 1000.5mb 44f 45f
6:04pm 5ft 8s 18 20 mph 999.8mb 44f 46f
5:04pm 7ft 11s 18 22 mph 999.3mb 44f 46f
4:04pm 5.5ft 6s 18 22 mph 998.9mb 44f 45f
3:04pm 6ft 8s 18 20 mph 998.5mb 44f 45f
2:04pm 7ft 8s 20 25 mph 998.3mb 44f 45f
1:04pm 6.5ft 8s 20 25 mph 998.4mb 43f 44f
12:04pm 7ft 8s 20 22 mph 999mb 43f 44f
11:04am 8.5ft 8s 20 25 mph 999.5mb 44f 44f
10:04am 8ft 8s 18 22 mph 999.8mb 44f 45f
9:04am 8.5ft 6s 22 27 mph 999.9mb 44f 45f
8:04am 8.5ft 8s 20 25 mph 1000.9mb 44f 45f
7:04am 8ft 8s 20 25 mph 1001.7mb 44f 45f
6:04am 10ft 6s 25 31 mph 1002mb 44f 45f
5:04am 9ft 8s 29 36 mph 1001.9mb 44f 45f
4:04am 9.5ft 8s 27 34 mph 1002.9mb 44f 45f
3:04am 9ft 8s 29 36 mph 1004.2mb 44f 45f
2:04am 7.5ft 8s 25 31 mph 1006.2mb 44f 45f
1:04am 8ft 8s 27 34 mph 1006.3mb 44f 45f
12:04am 5ft 5s 25 31 mph 1008mb 44f 46f
Thu 05/25 11:04pm 6ft 6s 22 27 mph 1008.7mb 44f 47f
10:04pm 5ft 8s 16 20 mph 1010mb 44f 47f
9:04pm 5ft 5s 20 22 mph 1009.3mb 45f 48f
8:04pm 4.5ft 8s 16 20 mph 1010mb 45f 47f
7:04pm 4.5ft 8s 16 18 mph 1011.3mb 45f 47f
6:04pm 4.5ft 8s 16 18 mph 1012.1mb 45f 47f
5:04pm 5ft 8s 18 20 mph 1012.8mb 45f 46f
4:04pm 4ft 8s 18 20 mph 1013.2mb 45f 46f
3:04pm 5ft 8s 16 18 mph 1013.2mb 45f 46f
2:04pm 5ft 11s 16 20 mph 1013.4mb 45f 46f
1:04pm 4.5ft 11s 16 18 mph 1014mb 45f 46f
12:04pm 4ft 8s 16 18 mph 1014.5mb 46f 46f
11:04am 3.5ft 8s 13 18 mph 1014.6mb 46f 46f
10:04am 4.5ft 11s 13 13 mph 1014.5mb 46f 46f
9:04am 4.5ft 8s 9 11 mph 1014.8mb 46f 46f
8:04am 3ft 8s 9 9 mph 1014.9mb 46f 46f
7:04am 3ft 8s 7 7 mph 1014.3mb 46f 46f
6:04am 3.5ft 8s 4 4 mph 1014.1mb 46f 46f
5:04am 3.5ft 8s 4 7 mph 1013mb 47f 46f
4:04am 3.5ft 8s 4 4 mph 1013mb 47f 47f